Time;durP1;ratioP1;P1;durP2;ratioP2;P2;SDS_P1;SDS_P2;PMS_P1;PMS_P2;Temp;Humidity;BMP_temperature;BMP_pressure;BME280_temperature;BME280_humidity;BME280_pressure;Samples;Min_cycle;Max_cycle;Signal;HPM_P1;HPM_P2
2022/04/16 00:02:04;;;;;;;;;;;;;;;26.87;37.89;94807.16;5048513;28;6909;-60
2022/04/16 00:04:30;;;;;;;;;;;;;;;26.87;37.31;94804.41;5046397;28;9105;-61
2022/04/16 00:07:01;;;;;;;;;;;;;;;26.89;37.11;94810.16;5051968;28;7022;-60
2022/04/16 00:09:31;;;;;;;;;;;;;;;26.86;38.12;94802.91;5057116;28;9270;-61
2022/04/16 00:12:06;;;;;;;;;;;;;;;26.83;37.12;94799.16;5043389;28;7287;-61
2022/04/16 00:14:38;;;;;;;;;;;;;;;26.86;37.13;94805.69;5043058;28;7242;-61
2022/04/16 00:17:05;;;;;;;;;;;;;;;26.84;37.91;94797.88;5049529;28;7230;-61
2022/04/16 00:19:32;;;;;;;;;;;;;;;26.84;37.49;94797.13;5048018;28;8485;-61
2022/04/16 00:22:07;;;;;;;;;;;;;;;26.83;38.04;94793.63;5040326;28;7156;-61
2022/04/16 00:24:52;;;;;;;;;;;;;;;26.82;37.67;94797.66;5053702;28;9210;-61
2022/04/16 00:27:32;;;;;;;;;;;;;;;26.82;37.65;94791.38;5047556;28;8787;-61
2022/04/16 00:30:10;;;;;;;;;;;;;;;26.79;37.07;94786.88;5041098;28;7111;-61
2022/04/16 00:32:36;;;;;;;;;;;;;;;26.82;37.03;94794.88;5047267;28;7341;-61
2022/04/16 00:35:20;;;;;;;;;;;;;;;26.82;37.43;94783.09;5033634;28;7247;-60
2022/04/16 00:37:48;;;;;;;;;;;;;;;26.79;37.91;94787.66;5036570;28;9140;-61
2022/04/16 00:40:27;;;;;;;;;;;;;;;26.77;37.94;94784.63;5049486;28;6940;-61
2022/04/16 00:42:58;;;;;;;;;;;;;;;26.77;38.03;94786.66;5046426;28;7205;-61
2022/04/16 00:45:32;;;;;;;;;;;;;;;26.77;37.42;94781.84;5046598;28;9597;-61
2022/04/16 00:48:04;;;;;;;;;;;;;;;26.77;37.54;94789.41;5051504;28;8743;-61
2022/04/16 00:50:39;;;;;;;;;;;;;;;26.74;37.59;94782.13;5044163;28;7374;-61
2022/04/16 00:53:10;;;;;;;;;;;;;;;26.75;37.90;94778.13;5049156;28;7325;-61
2022/04/16 00:55:38;;;;;;;;;;;;;;;26.76;37.62;94777.59;5046129;28;9084;-61
2022/04/16 00:58:14;;;;;;;;;;;;;;;26.76;37.91;94782.38;5047044;28;7220;-61
2022/04/16 01:00:41;;;;;;;;;;;;;;;26.75;37.25;94783.66;5038503;28;7219;-60
2022/04/16 01:03:10;;;;;;;;;;;;;;;26.74;37.81;94782.91;5042295;28;7244;-61
2022/04/16 01:05:37;;;;;;;;;;;;;;;26.73;37.17;94783.41;5039634;28;8081;-61
2022/04/16 01:08:06;;;;;;;;;;;;;;;26.71;37.48;94781.09;5043180;28;7320;-60
2022/04/16 01:10:50;;;;;;;;;;;;;;;26.74;38.08;94787.66;5049050;28;7050;-61
2022/04/16 01:13:19;;;;;;;;;;;;;;;26.74;37.53;94782.13;5040603;28;7242;-58
2022/04/16 01:15:47;;;;;;;;;;;;;;;26.73;37.71;94783.41;5054541;28;8772;-58
2022/04/16 01:18:13;;;;;;;;;;;;;;;26.72;37.23;94788.13;5050282;28;6996;-58
2022/04/16 01:20:41;;;;;;;;;;;;;;;26.72;37.94;94787.38;5051369;28;7585;-58
2022/04/16 01:23:09;;;;;;;;;;;;;;;26.70;37.84;94787.16;5043690;28;6983;-58
2022/04/16 01:25:55;;;;;;;;;;;;;;;26.69;37.58;94774.59;5050838;28;9221;-58
2022/04/16 01:28:23;;;;;;;;;;;;;;;26.68;37.74;94781.38;5045065;28;8143;-58
2022/04/16 01:30:56;;;;;;;;;;;;;;;26.67;36.89;94774.34;5034326;28;9263;-58
2022/04/16 01:33:22;;;;;;;;;;;;;;;26.69;37.51;94777.34;5049140;28;9066;-58
2022/04/16 01:35:56;;;;;;;;;;;;;;;26.68;37.03;94775.88;5039971;28;7370;-58
2022/04/16 01:38:26;;;;;;;;;;;;;;;26.65;37.72;94776.88;5039425;28;9364;-58
2022/04/16 01:41:01;;;;;;;;;;;;;;;26.68;37.92;94775.88;5045161;28;6895;-58
2022/04/16 01:43:58;;;;;;;;;;;;;;;26.66;37.82;94775.63;5038545;28;7166;-58
2022/04/16 01:46:27;;;;;;;;;;;;;;;26.65;37.18;94785.91;4951717;28;7029;-58
2022/04/16 01:48:58;;;;;;;;;;;;;;;26.63;37.30;94785.66;4954200;28;7120;-58
2022/04/16 01:51:25;;;;;;;;;;;;;;;26.65;37.78;94776.88;4960110;28;9085;-58
2022/04/16 01:53:58;;;;;;;;;;;;;;;26.63;36.98;94782.16;4952222;28;9018;-58
2022/04/16 01:56:58;;;;;;;;;;;;;;;26.65;37.75;94776.88;4969920;28;9526;-60
2022/04/16 01:59:40;;;;;;;;;;;;;;;26.63;37.33;94784.91;4898465;29;9098;-59
2022/04/16 02:02:43;;;;;;;;;;;;;;;26.63;37.00;94773.88;4893816;29;7984;-60
2022/04/16 02:05:10;;;;;;;;;;;;;;;26.62;37.37;94766.88;4822772;29;7175;-59
2022/04/16 02:07:41;;;;;;;;;;;;;;;26.62;37.47;94778.63;4822793;29;9076;-60
2022/04/16 02:10:16;;;;;;;;;;;;;;;26.61;37.34;94776.41;4838946;29;7001;-60
2022/04/16 02:12:43;;;;;;;;;;;;;;;26.59;37.11;94776.16;4824475;29;7337;-60
2022/04/16 02:15:10;;;;;;;;;;;;;;;26.57;37.91;94778.69;4838858;29;6967;-60
2022/04/16 02:17:37;;;;;;;;;;;;;;;26.58;37.51;94778.16;4838476;29;8820;-60
2022/04/16 02:20:09;;;;;;;;;;;;;;;26.57;37.44;94773.16;4839764;29;7247;-59
2022/04/16 02:23:30;;;;;;;;;;;;;;;26.59;37.83;94773.41;4851213;29;7567;-60
2022/04/16 02:25:56;;;;;;;;;;;;;;;26.58;37.57;94769.88;4820395;29;7076;-59
2022/04/16 02:28:39;;;;;;;;;;;;;;;26.56;37.32;94775.16;4820744;29;7243;-59
2022/04/16 02:31:25;;;;;;;;;;;;;;;26.57;37.75;94776.66;4820216;29;9153;-60
2022/04/16 02:34:04;;;;;;;;;;;;;;;26.57;37.45;94781.44;4821168;29;8761;-60
2022/04/16 02:37:04;;;;;;;;;;;;;;;26.55;37.33;94773.66;4878580;29;8795;-60
2022/04/16 02:39:33;;;;;;;;;;;;;;;26.53;37.40;94776.19;4877693;29;7082;-60
2022/04/16 02:42:00;;;;;;;;;;;;;;;26.55;37.54;94778.44;4918427;29;7017;-61
2022/04/16 02:47:20;;;;;;;;;;;;;;;26.53;37.69;94769.91;4917722;29;9396;-60
2022/04/16 02:49:46;;;;;;;;;;;;;;;26.52;36.85;94768.41;4929976;29;7255;-60
2022/04/16 02:52:19;;;;;;;;;;;;;;;26.51;37.09;94769.69;4914917;29;9087;-60
2022/04/16 02:55:16;;;;;;;;;;;;;;;26.49;37.92;94769.44;4929820;29;9039;-60
2022/04/16 02:57:54;;;;;;;;;;;;;;;26.50;37.73;94784.72;4860685;29;8745;-60
2022/04/16 03:00:21;;;;;;;;;;;;;;;26.50;37.08;94782.72;4885546;29;9451;-60
2022/04/16 03:02:56;;;;;;;;;;;;;;;26.49;37.84;94777.72;4893384;29;8994;-60
2022/04/16 03:05:24;;;;;;;;;;;;;;;26.48;37.39;94781.72;4885831;29;9151;-60
2022/04/16 03:07:50;;;;;;;;;;;;;;;26.48;36.94;94776.94;4884234;29;9340;-60
2022/04/16 03:10:50;;;;;;;;;;;;;;;26.48;37.14;94776.94;4869373;29;7051;-61
2022/04/16 03:13:19;;;;;;;;;;;;;;;26.47;37.59;94771.94;4895820;29;7082;-60
2022/04/16 03:18:34;;;;;;;;;;;;;;;26.45;36.97;94780.72;4921083;29;6995;-60
2022/04/16 03:21:00;;;;;;;;;;;;;;;26.45;37.51;94777.19;4922736;29;7179;-60
2022/04/16 03:23:31;;;;;;;;;;;;;;;26.45;36.77;94774.44;4919028;29;7247;-60
2022/04/16 03:26:11;;;;;;;;;;;;;;;26.43;37.39;94777.72;4916262;29;7283;-60
2022/04/16 03:28:40;;;;;;;;;;;;;;;26.43;37.36;94783.22;4917773;29;9106;-60
2022/04/16 03:31:06;;;;;;;;;;;;;;;26.42;37.59;94775.47;4938788;28;8803;-60
2022/04/16 03:33:41;;;;;;;;;;;;;;;26.40;37.11;94778.75;4939746;28;9332;-60
2022/04/16 03:36:07;;;;;;;;;;;;;;;26.41;37.15;94779.47;4974990;28;7200;-60
2022/04/16 03:38:35;;;;;;;;;;;;;;;26.42;36.96;94775.47;4984916;28;7080;-60
2022/04/16 03:41:02;;;;;;;;;;;;;;;26.41;37.73;94774.72;4987404;28;7069;-60
2022/04/16 03:43:38;;;;;;;;;;;;;;;26.41;37.18;94780.22;4976465;28;7225;-60
2022/04/16 03:46:11;;;;;;;;;;;;;;;26.39;37.17;94773.72;4974544;28;7001;-60
2022/04/16 03:48:49;;;;;;;;;;;;;;;26.39;37.04;94782.00;4994623;28;8794;-60
2022/04/16 03:51:15;;;;;;;;;;;;;;;26.40;36.90;94775.22;5043318;28;7068;-60
2022/04/16 03:53:46;;;;;;;;;;;;;;;26.39;36.64;94782.75;5052337;28;6956;-60
2022/04/16 04:01:55;;;;;;;;;;;;;;;26.35;37.68;94778.75;5044260;28;7196;-60
2022/04/16 04:04:43;;;;;;;;;;;;;;;26.36;37.12;94780.25;5046914;28;9166;-60
2022/04/16 04:07:41;;;;;;;;;;;;;;;26.36;36.78;94785.78;5032869;28;9068;-59
2022/04/16 04:10:15;;;;;;;;;;;;;;;26.34;37.08;94786.25;4985581;28;6873;-60
2022/04/16 04:13:05;;;;;;;;;;;;;;;26.34;37.48;94793.81;4981232;28;7215;-59
2022/04/16 04:15:48;;;;;;;;;;;;;;;26.35;37.38;94795.28;4975476;28;8736;-60
2022/04/16 04:18:16;;;;;;;;;;;;;;;26.34;36.77;94789.03;4967196;28;7289;-59
2022/04/16 04:20:42;;;;;;;;;;;;;;;26.32;37.53;94794.28;4965169;28;7377;-59
2022/04/16 04:23:12;;;;;;;;;;;;;;;26.33;36.76;94797.81;4968291;28;6977;-60
2022/04/16 04:25:38;;;;;;;;;;;;;;;26.32;37.49;94796.31;4971736;28;9458;-60
2022/04/16 04:28:05;;;;;;;;;;;;;;;26.32;36.69;94802.56;4975618;28;9121;-60
2022/04/16 04:30:41;;;;;;;;;;;;;;;26.32;37.20;94797.06;4975870;28;9475;-61
2022/04/16 04:33:20;;;;;;;;;;;;;;;26.32;36.78;94797.06;4984987;28;9047;-60
2022/04/16 04:35:48;;;;;;;;;;;;;;;26.30;37.50;94796.81;4972364;28;7505;-61
2022/04/16 04:38:28;;;;;;;;;;;;;;;26.30;36.73;94798.81;4985278;28;9157;-61
2022/04/16 04:40:54;;;;;;;;;;;;;;;26.30;36.73;94804.31;4987220;28;8766;-61
2022/04/16 04:43:31;;;;;;;;;;;;;;;26.29;36.58;94802.84;4988016;28;7330;-61
2022/04/16 04:46:04;;;;;;;;;;;;;;;26.28;37.54;94807.59;5007438;28;6967;-61
2022/04/16 04:48:31;;;;;;;;;;;;;;;26.28;36.78;94801.31;5040619;28;9025;-61
2022/04/16 04:51:30;;;;;;;;;;;;;;;26.28;37.51;94809.59;5051414;28;7246;-60
2022/04/16 04:54:03;;;;;;;;;;;;;;;26.25;36.80;94808.63;5047868;28;7201;-60
2022/04/16 04:56:37;;;;;;;;;;;;;;;26.24;36.71;94809.13;5046638;28;9061;-60
2022/04/16 04:59:06;;;;;;;;;;;;;;;26.23;36.83;94813.88;5048948;28;9555;-60
2022/04/16 05:02:10;;;;;;;;;;;;;;;26.24;36.66;94818.13;5059094;28;9255;-60
2022/04/16 05:04:45;;;;;;;;;;;;;;;26.24;36.74;94833.94;4993203;28;7267;-60
2022/04/16 05:07:13;;;;;;;;;;;;;;;26.23;37.47;94829.69;4995296;28;7181;-59
2022/04/16 05:09:41;;;;;;;;;;;;;;;26.25;37.61;94832.69;4994716;28;7086;-59
2022/04/16 05:12:19;;;;;;;;;;;;;;;26.24;36.97;94837.44;5009130;28;7823;-60
2022/04/16 05:14:55;;;;;;;;;;;;;;;26.23;36.74;94835.19;5005836;28;7040;-60
2022/04/16 05:17:21;;;;;;;;;;;;;;;26.24;37.55;94839.44;5002543;28;8990;-59
2022/04/16 05:19:47;;;;;;;;;;;;;;;26.23;37.13;94840.72;5011090;28;9056;-59
2022/04/16 05:22:24;;;;;;;;;;;;;;;26.23;37.62;94835.19;5010733;28;9304;-59
2022/04/16 05:25:00;;;;;;;;;;;;;;;26.21;36.89;94830.16;5010224;28;9168;-59
2022/04/16 05:27:36;;;;;;;;;;;;;;;26.21;36.53;94826.69;4993892;28;7293;-60
2022/04/16 05:30:06;;;;;;;;;;;;;;;26.19;37.29;94818.91;5008409;28;8708;-59
2022/04/16 05:32:45;;;;;;;;;;;;;;;26.19;36.52;94820.94;4991434;28;9192;-59
2022/04/16 05:35:13;;;;;;;;;;;;;;;26.16;37.43;94814.41;4994548;28;7134;-59
2022/04/16 05:37:59;;;;;;;;;;;;;;;26.16;36.74;94809.63;5012489;28;6984;-59
2022/04/16 05:40:27;;;;;;;;;;;;;;;26.15;37.05;94821.91;5033402;28;8950;-59
2022/04/16 05:43:02;;;;;;;;;;;;;;;26.18;35.66;94825.69;5037770;28;10092;-59
2022/04/16 05:45:30;;;;;;;;;;;;;;;26.17;35.69;94830.44;5049410;28;9087;-59
2022/04/16 05:48:05;;;;;;;;;;;;;;;26.15;35.17;94830.19;5041162;28;8781;-59
2022/04/16 05:50:45;;;;;;;;;;;;;;;26.14;34.93;94831.44;5039696;28;9008;-59
2022/04/16 05:53:13;;;;;;;;;;;;;;;26.15;34.68;94837.69;5041100;28;9077;-59
2022/04/16 05:55:53;;;;;;;;;;;;;;;26.09;35.04;94826.69;5038458;28;9144;-59
2022/04/16 05:58:40;;;;;;;;;;;;;;;26.09;35.35;94823.94;5037029;28;6978;-59
2022/04/16 06:01:26;;;;;;;;;;;;;;;26.08;34.81;94825.19;5034427;28;7245;-60
2022/04/16 06:04:00;;;;;;;;;;;;;;;26.06;34.58;94822.16;5041303;28;7957;-60
2022/04/16 06:06:31;;;;;;;;;;;;;;;26.05;34.81;94828.19;5048825;28;9089;-60
2022/04/16 06:09:04;;;;;;;;;;;;;;;26.09;34.39;94834.22;5043854;28;9112;-60
2022/04/16 06:11:35;;;;;;;;;;;;;;;26.11;35.06;94845.47;5049439;28;9487;-60
2022/04/16 06:14:01;;;;;;;;;;;;;;;26.10;35.05;94838.47;5038385;28;7672;-60
2022/04/16 06:17:02;;;;;;;;;;;;;;;26.10;34.28;94841.22;5043875;28;9065;-60
2022/04/16 06:19:30;;;;;;;;;;;;;;;26.10;35.16;94849.47;5046437;28;7097;-60
2022/04/16 06:21:56;;;;;;;;;;;;;;;26.10;34.53;94846.72;5037851;28;9377;-60
2022/04/16 06:24:22;;;;;;;;;;;;;;;26.09;34.56;94846.00;5036601;28;9382;-60
2022/04/16 06:26:50;;;;;;;;;;;;;;;26.09;34.63;94848.00;5040158;28;9098;-60
2022/04/16 06:29:20;;;;;;;;;;;;;;;26.10;34.33;94860.50;5039124;28;8763;-60
2022/04/16 06:31:52;;;;;;;;;;;;;;;26.10;34.44;94874.28;5043207;28;9157;-60
2022/04/16 06:34:18;;;;;;;;;;;;;;;26.08;35.52;94868.50;5045452;28;7272;-60
2022/04/16 06:36:53;;;;;;;;;;;;;;;26.09;34.97;94850.75;5035437;28;7384;-60
2022/04/16 06:39:44;;;;;;;;;;;;;;;26.11;35.55;94857.28;5055574;28;8266;-60
2022/04/16 06:42:09;;;;;;;;;;;;;;;26.12;34.56;94855.28;5047941;28;7639;-61
2022/04/16 06:48:04;;;;;;;;;;;;;;;26.08;34.85;94852.75;5037287;28;7479;-60
2022/04/16 06:50:32;;;;;;;;;;;;;;;26.09;35.82;94864.53;5045790;28;9023;-61
2022/04/16 06:53:05;;;;;;;;;;;;;;;26.05;34.95;94856.50;5049644;28;7374;-61
2022/04/16 06:55:32;;;;;;;;;;;;;;;26.06;35.85;94863.50;5046866;28;9267;-61
2022/04/16 06:58:04;;;;;;;;;;;;;;;26.07;35.57;94856.00;5041500;28;7054;-61
2022/04/16 07:00:44;;;;;;;;;;;;;;;26.06;35.03;94860.75;5036491;28;7664;-61
2022/04/16 07:03:10;;;;;;;;;;;;;;;26.07;35.04;94867.03;5035744;28;9035;-60
2022/04/16 07:05:38;;;;;;;;;;;;;;;26.06;35.83;94866.25;5037694;28;7236;-60
2022/04/16 07:08:19;;;;;;;;;;;;;;;26.03;35.59;94858.97;5039971;28;9147;-61
2022/04/16 07:10:53;;;;;;;;;;;;;;;26.03;35.53;94864.50;5036502;28;6997;-60
2022/04/16 07:13:30;;;;;;;;;;;;;;;26.05;36.39;94869.53;5046839;28;6988;-60
2022/04/16 07:16:07;;;;;;;;;;;;;;;26.05;35.93;94869.53;5037539;28;8967;-60
2022/04/16 07:18:33;;;;;;;;;;;;;;;26.04;36.70;94865.25;5050517;28;9129;-60
2022/04/16 07:20:59;;;;;;;;;;;;;;;26.03;35.78;94861.75;5050042;28;7504;-60
2022/04/16 07:23:25;;;;;;;;;;;;;;;26.01;35.63;94853.22;5050713;28;7209;-60
2022/04/16 07:25:51;;;;;;;;;;;;;;;26.02;36.62;94860.25;5052406;28;7565;-60
2022/04/16 07:28:25;;;;;;;;;;;;;;;25.99;36.24;94855.72;5062101;28;7305;-60
2022/04/16 07:30:53;;;;;;;;;;;;;;;26.00;36.55;94862.75;5033053;28;7268;-60
2022/04/16 07:33:31;;;;;;;;;;;;;;;25.99;35.83;94855.00;5045640;28;7270;-60
2022/04/16 07:36:02;;;;;;;;;;;;;;;26.00;36.18;94857.25;5039638;28;7984;-59
2022/04/16 07:38:29;;;;;;;;;;;;;;;26.00;36.03;94860.00;5044639;28;6999;-60
2022/04/16 07:41:04;;;;;;;;;;;;;;;25.98;35.66;94865.28;5036298;28;9266;-61
2022/04/16 07:43:37;;;;;;;;;;;;;;;25.95;35.73;94871.78;5044282;28;9104;-61
2022/04/16 07:46:04;;;;;;;;;;;;;;;25.94;35.74;94870.28;5051313;28;7054;-60
2022/04/16 07:48:30;;;;;;;;;;;;;;;25.94;35.88;94873.03;5061793;28;6987;-61
2022/04/16 07:50:57;;;;;;;;;;;;;;;25.94;35.55;94872.28;5041020;28;8198;-61
2022/04/16 07:53:24;;;;;;;;;;;;;;;25.93;35.66;94882.56;5051197;28;7810;-61
2022/04/16 07:55:58;;;;;;;;;;;;;;;25.96;35.31;94883.56;5038246;28;9061;-61
2022/04/16 07:58:26;;;;;;;;;;;;;;;25.94;35.72;94878.56;5039357;28;7603;-61
2022/04/16 08:01:25;;;;;;;;;;;;;;;25.96;35.72;94884.31;5037702;28;7899;-61
2022/04/16 08:03:54;;;;;;;;;;;;;;;25.95;36.31;94893.06;4973624;28;7063;-61
2022/04/16 08:06:28;;;;;;;;;;;;;;;25.95;35.99;94893.81;4974625;28;9107;-61
2022/04/16 08:09:01;;;;;;;;;;;;;;;25.94;36.11;94892.34;4976763;28;8904;-61
2022/04/16 08:11:34;;;;;;;;;;;;;;;25.94;36.26;94892.34;4994500;28;9240;-61
2022/04/16 08:14:04;;;;;;;;;;;;;;;25.95;36.25;94891.06;4984202;28;7319;-60
2022/04/16 08:16:42;;;;;;;;;;;;;;;25.97;36.68;94901.59;4986923;28;9173;-61
2022/04/16 08:19:07;;;;;;;;;;;;;;;25.97;36.79;94901.59;4982923;28;7671;-60
2022/04/16 08:21:36;;;;;;;;;;;;;;;25.98;37.35;94900.34;4985973;28;6986;-61
2022/04/16 08:24:13;;;;;;;;;;;;;;;25.99;36.81;94907.38;4975813;28;7401;-61
2022/04/16 08:26:40;;;;;;;;;;;;;;;25.97;36.52;94913.38;4974998;28;7232;-61
2022/04/16 08:29:07;;;;;;;;;;;;;;;25.98;37.21;94914.88;4988707;28;9108;-61
2022/04/16 08:31:34;;;;;;;;;;;;;;;25.99;37.73;94912.88;4977354;28;9025;-61
2022/04/16 08:34:02;;;;;;;;;;;;;;;25.99;37.02;94910.84;4971526;28;9141;-60
2022/04/16 08:36:30;;;;;;;;;;;;;;;26.00;37.05;94908.88;4973980;28;7843;-60
2022/04/16 08:38:56;;;;;;;;;;;;;;;25.98;37.75;94911.38;4972820;28;6989;-61
2022/04/16 08:41:25;;;;;;;;;;;;;;;25.99;37.53;94910.13;5036542;28;7109;-61
2022/04/16 08:43:55;;;;;;;;;;;;;;;25.96;37.54;94914.63;5028856;28;9079;-61
2022/04/16 08:46:31;;;;;;;;;;;;;;;25.97;37.20;94923.63;5034781;28;7607;-60
2022/04/16 08:48:59;;;;;;;;;;;;;;;25.98;37.63;94916.88;5033862;28;7249;-61
2022/04/16 08:51:28;;;;;;;;;;;;;;;25.95;37.17;94915.88;5034978;28;7261;-59
2022/04/16 08:53:56;;;;;;;;;;;;;;;25.96;37.76;94927.66;5038081;28;7208;-59
2022/04/16 08:56:34;;;;;;;;;;;;;;;25.93;37.47;94921.13;5043437;28;8767;-59
2022/04/16 08:59:12;;;;;;;;;;;;;;;25.98;37.99;94919.63;5042943;28;7514;-59
2022/04/16 09:01:45;;;;;;;;;;;;;;;25.95;38.00;94921.38;5041039;28;6992;-59
2022/04/16 09:04:23;;;;;;;;;;;;;;;25.95;38.07;94937.16;5037896;28;8701;-59
2022/04/16 09:07:00;;;;;;;;;;;;;;;25.97;37.32;94929.91;5040268;28;6969;-59
2022/04/16 09:09:37;;;;;;;;;;;;;;;25.99;37.85;94940.44;5043114;28;9815;-58
2022/04/16 09:12:20;;;;;;;;;;;;;;;25.99;37.63;94926.66;5033957;28;7222;-59
2022/04/16 09:15:16;;;;;;;;;;;;;;;25.99;37.75;94927.41;5041119;28;6964;-59
2022/04/16 09:18:17;;;;;;;;;;;;;;;25.99;37.45;94938.44;5047036;28;7299;-59
2022/04/16 09:20:43;;;;;;;;;;;;;;;25.97;37.82;94934.66;5056564;28;7435;-59
2022/04/16 09:23:23;;;;;;;;;;;;;;;25.98;37.90;94950.72;5043248;28;7465;-59
2022/04/16 09:25:55;;;;;;;;;;;;;;;25.97;38.40;94938.19;5036161;28;9086;-59
2022/04/16 09:28:48;;;;;;;;;;;;;;;25.98;38.44;94942.44;5045396;28;9156;-59
2022/04/16 09:31:16;;;;;;;;;;;;;;;26.00;37.75;94948.22;4984582;28;9239;-59
2022/04/16 09:33:44;;;;;;;;;;;;;;;26.00;38.32;94944.69;4987006;28;7258;-60
2022/04/16 09:36:38;;;;;;;;;;;;;;;26.00;38.31;94939.19;4976149;28;9108;-59
2022/04/16 09:39:15;;;;;;;;;;;;;;;26.00;38.52;94939.94;4967439;28;7295;-60
2022/04/16 09:41:51;;;;;;;;;;;;;;;26.02;38.28;94947.69;4971427;28;9094;-59
2022/04/16 09:44:28;;;;;;;;;;;;;;;26.02;38.22;94950.47;4987699;28;7255;-59
2022/04/16 09:47:03;;;;;;;;;;;;;;;26.01;38.56;94952.44;4981121;28;7248;-59
2022/04/16 09:49:43;;;;;;;;;;;;;;;26.02;37.99;94958.72;4966664;28;9471;-59
2022/04/16 09:52:12;;;;;;;;;;;;;;;26.01;38.91;94949.69;4970464;28;9121;-59
2022/04/16 09:54:50;;;;;;;;;;;;;;;26.02;38.22;94965.00;4984728;28;7727;-59
2022/04/16 09:57:31;;;;;;;;;;;;;;;26.03;38.31;94966.50;4965566;28;9583;-59
2022/04/16 10:00:01;;;;;;;;;;;;;;;26.01;39.02;94969.00;4969825;28;7498;-59
2022/04/16 10:02:34;;;;;;;;;;;;;;;26.00;38.40;94967.50;4969637;28;8728;-60
2022/04/16 10:05:03;;;;;;;;;;;;;;;26.02;38.42;94967.00;4981231;28;7054;-59
2022/04/16 10:07:31;;;;;;;;;;;;;;;26.01;38.27;94977.25;4980938;28;7220;-59
2022/04/16 10:09:58;;;;;;;;;;;;;;;26.01;38.23;94974.50;5034236;28;7267;-59
2022/04/16 10:15:13;;;;;;;;;;;;;;;26.02;38.36;94984.28;5036077;28;7005;-59
2022/04/16 10:17:52;;;;;;;;;;;;;;;26.02;38.11;94981.53;5036521;28;7172;-59
2022/04/16 10:20:21;;;;;;;;;;;;;;;26.03;39.00;94980.28;5039758;28;7092;-60
2022/04/16 10:23:03;;;;;;;;;;;;;;;26.03;38.60;94985.06;5037758;28;9028;-59
2022/04/16 10:25:34;;;;;;;;;;;;;;;26.03;38.08;94980.28;5047082;28;8742;-59
2022/04/16 10:28:10;;;;;;;;;;;;;;;26.03;38.59;94988.53;5040408;28;7434;-59
2022/04/16 10:31:27;;;;;;;;;;;;;;;26.02;38.47;94991.81;5051688;28;8310;-59
2022/04/16 10:34:16;;;;;;;;;;;;;;;26.01;38.86;94985.53;4948800;28;7159;-59
2022/04/16 10:36:59;;;;;;;;;;;;;;;26.01;38.54;94984.81;4969933;28;8799;-59
2022/04/16 10:39:29;;;;;;;;;;;;;;;26.01;38.72;94982.03;4966120;28;7047;-59
2022/04/16 10:42:05;;;;;;;;;;;;;;;25.99;38.76;94988.03;4951379;28;7279;-59
2022/04/16 10:44:53;;;;;;;;;;;;;;;26.02;37.99;94991.81;4968644;28;7378;-59
2022/04/16 10:47:27;;;;;;;;;;;;;;;26.01;38.62;94984.81;4949296;28;9126;-60
2022/04/16 10:49:57;;;;;;;;;;;;;;;26.00;38.84;94981.28;4953134;28;7208;-60
2022/04/16 10:52:55;;;;;;;;;;;;;;;26.01;39.01;94990.31;4951124;28;7058;-60
2022/04/16 10:55:30;;;;;;;;;;;;;;;26.00;38.61;94995.06;4896775;29;7555;-60
2022/04/16 10:58:05;;;;;;;;;;;;;;;26.00;38.77;94992.31;4908715;29;8879;-60
2022/04/16 11:01:09;;;;;;;;;;;;;;;26.00;38.24;94995.06;4895231;29;7687;-61
2022/04/16 11:03:57;;;;;;;;;;;;;;;26.01;39.08;94984.81;4907546;29;6982;-60
2022/04/16 11:06:34;;;;;;;;;;;;;;;26.02;38.98;94997.31;4907451;29;9291;-60
2022/04/16 11:09:02;;;;;;;;;;;;;;;26.00;38.88;94986.81;4987083;28;9121;-61
2022/04/16 11:11:43;;;;;;;;;;;;;;;26.03;38.44;94994.06;4988969;28;7219;-60
2022/04/16 11:14:10;;;;;;;;;;;;;;;26.04;38.89;94987.31;5002905;28;7124;-60
2022/04/16 11:16:47;;;;;;;;;;;;;;;26.06;39.08;94998.59;5000033;28;6994;-60
2022/04/16 11:19:17;;;;;;;;;;;;;;;26.04;39.14;94987.31;4983555;28;7880;-60
2022/04/16 11:21:46;;;;;;;;;;;;;;;26.04;39.06;94992.06;4982002;28;7501;-60
2022/04/16 11:24:14;;;;;;;;;;;;;;;26.07;39.41;94996.59;4984979;28;9495;-60
2022/04/16 11:34:57;;;;;;;;;;;;;;;26.06;39.24;94984.78;5027731;28;9115;-60
2022/04/16 11:37:32;;;;;;;;;;;;;;;26.06;38.89;94987.56;5029775;28;9081;-60
2022/04/16 11:40:05;;;;;;;;;;;;;;;26.07;39.37;94986.31;5033868;28;7006;-60
2022/04/16 11:42:34;;;;;;;;;;;;;;;26.09;39.17;94985.84;5037445;28;7223;-60
2022/04/16 11:45:01;;;;;;;;;;;;;;;26.08;38.75;94979.56;5033496;28;9167;-60
2022/04/16 11:47:37;;;;;;;;;;;;;;;26.06;39.01;94973.00;5054174;28;7193;-60
2022/04/16 11:50:06;;;;;;;;;;;;;;;26.08;38.56;94976.03;5039216;28;7479;-60
2022/04/16 11:52:39;;;;;;;;;;;;;;;26.09;38.30;94980.31;5040468;28;7819;-60
2022/04/16 11:55:10;;;;;;;;;;;;;;;26.07;38.88;94980.81;5034433;28;7043;-60
2022/04/16 11:57:43;;;;;;;;;;;;;;;26.09;38.83;94978.31;5032126;28;9156;-60
2022/04/16 12:00:11;;;;;;;;;;;;;;;26.10;38.48;94974.28;5042802;28;9022;-60
2022/04/16 12:02:59;;;;;;;;;;;;;;;26.14;38.99;94985.09;5034488;28;9179;-60
2022/04/16 12:05:47;;;;;;;;;;;;;;;26.12;38.65;94988.34;5038943;28;9726;-60
2022/04/16 12:08:27;;;;;;;;;;;;;;;26.10;38.55;94977.06;5047864;28;7144;-60
2022/04/16 12:11:07;;;;;;;;;;;;;;;26.12;38.70;94985.56;5051678;28;7195;-60
2022/04/16 12:13:51;;;;;;;;;;;;;;;26.11;39.02;94981.34;5033275;28;9077;-60
2022/04/16 12:16:17;;;;;;;;;;;;;;;26.11;39.04;94989.59;5033233;28;7381;-60
2022/04/16 12:18:53;;;;;;;;;;;;;;;26.14;38.23;94985.09;5059013;28;6974;-60
2022/04/16 12:21:19;;;;;;;;;;;;;;;26.14;38.43;94983.06;5039961;28;7240;-60
2022/04/16 12:23:45;;;;;;;;;;;;;;;26.16;39.08;94986.06;5050296;28;7275;-60
2022/04/16 12:26:14;;;;;;;;;;;;;;;26.15;38.67;94981.84;5046142;28;7316;-60
2022/04/16 12:28:51;;;;;;;;;;;;;;;26.19;38.32;94983.59;5040549;28;9484;-60
2022/04/16 12:31:32;;;;;;;;;;;;;;;26.16;38.37;94985.34;5037573;28;7263;-61
2022/04/16 12:33:58;;;;;;;;;;;;;;;26.19;38.03;94981.56;5042240;28;8161;-61
2022/04/16 12:36:24;;;;;;;;;;;;;;;26.21;38.45;94981.09;5042224;28;7030;-61
2022/04/16 12:38:57;;;;;;;;;;;;;;;26.16;38.17;94975.03;5045940;28;8722;-61
2022/04/16 12:41:32;;;;;;;;;;;;;;;26.13;38.57;94975.31;5038752;28;9187;-61
2022/04/16 12:44:05;;;;;;;;;;;;;;;26.17;38.81;94982.09;5053149;28;6995;-61
2022/04/16 12:46:34;;;;;;;;;;;;;;;26.17;37.63;94973.81;5043981;28;7046;-61
2022/04/16 12:49:07;;;;;;;;;;;;;;;26.19;38.38;94978.09;5044719;28;7203;-61
2022/04/16 12:51:36;;;;;;;;;;;;;;;26.20;38.27;94974.06;5041415;28;8076;-61
2022/04/16 12:54:17;;;;;;;;;;;;;;;26.20;37.43;94982.34;5043012;28;9230;-61
2022/04/16 12:56:47;;;;;;;;;;;;;;;26.20;38.05;94979.56;5043225;28;7280;-61
2022/04/16 12:59:43;;;;;;;;;;;;;;;26.16;37.95;94975.03;5047825;28;7019;-61
2022/04/16 13:02:18;;;;;;;;;;;;;;;26.13;37.41;94965.03;4986548;28;9227;-61
2022/04/16 13:05:01;;;;;;;;;;;;;;;26.14;37.54;94972.03;4965115;28;7382;-61
2022/04/16 13:07:31;;;;;;;;;;;;;;;26.15;37.53;94973.56;4984335;28;9467;-61
2022/04/16 13:09:57;;;;;;;;;;;;;;;26.19;38.03;94967.06;4971970;28;7248;-61
2022/04/16 13:12:25;;;;;;;;;;;;;;;26.19;37.89;94975.31;4981824;28;6985;-58
2022/04/16 13:15:25;;;;;;;;;;;;;;;26.22;37.64;94968.78;4987178;28;7254;-59
2022/04/16 13:17:52;;;;;;;;;;;;;;;26.21;38.07;94959.75;4972359;28;7214;-58
2022/04/16 13:20:18;;;;;;;;;;;;;;;26.23;38.34;94962.03;4980854;28;9464;-59
2022/04/16 13:22:46;;;;;;;;;;;;;;;26.21;37.83;94959.75;4979211;28;8866;-58
2022/04/16 13:25:17;;;;;;;;;;;;;;;26.26;38.29;94952.75;4981492;28;7901;-58
2022/04/16 13:27:55;;;;;;;;;;;;;;;26.23;37.94;94948.25;4959932;28;8688;-58
2022/04/16 13:30:34;;;;;;;;;;;;;;;26.26;37.53;94953.50;4963883;28;7399;-58
2022/04/16 13:33:08;;;;;;;;;;;;;;;26.27;38.28;94948.75;4965451;28;7207;-58
2022/04/16 13:35:35;;;;;;;;;;;;;;;26.29;38.44;94940.72;4967369;28;6928;-58
2022/04/16 13:38:02;;;;;;;;;;;;;;;26.24;37.92;94935.94;4966186;28;7080;-58
2022/04/16 13:43:18;;;;;;;;;;;;;;;26.27;38.10;94937.72;5036139;28;9345;-58
2022/04/16 13:46:19;;;;;;;;;;;;;;;26.23;37.85;94946.22;5040812;28;7272;-58
2022/04/16 13:49:13;;;;;;;;;;;;;;;26.27;38.22;94940.47;5003512;28;7206;-58
2022/04/16 13:52:04;;;;;;;;;;;;;;;26.30;37.03;94920.16;4989237;28;9101;-58
2022/04/16 13:54:31;;;;;;;;;;;;;;;26.33;37.92;94925.44;4984075;28;7401;-58
2022/04/16 13:57:13;;;;;;;;;;;;;;;26.33;36.72;94927.44;4993731;28;7207;-58
2022/04/16 13:59:58;;;;;;;;;;;;;;;26.33;37.06;94927.44;4999867;28;7603;-58
2022/04/16 14:02:57;;;;;;;;;;;;;;;26.32;36.50;94925.94;4990700;28;9081;-58
2022/04/16 14:05:44;;;;;;;;;;;;;;;26.31;36.53;94924.44;4896029;29;9250;-58